createdAt,value
2023-01-03T00:02:00.306Z,8.08
2023-01-03T00:04:30.716Z,8.12
2023-01-03T00:07:02.108Z,8.08
2023-01-03T00:09:30.936Z,8.06
2023-01-03T00:12:14.138Z,8.11
2023-01-03T00:14:48.921Z,8.13
2023-01-03T00:17:21.612Z,8.21
2023-01-03T00:19:51.571Z,8.02
2023-01-03T00:22:24.709Z,7.93
2023-01-03T00:24:56.249Z,7.93
2023-01-03T00:27:25.487Z,7.79
2023-01-03T00:29:55.335Z,7.97
2023-01-03T00:32:26.139Z,7.95
2023-01-03T00:35:02.999Z,7.75
2023-01-03T00:37:36.826Z,7.89
2023-01-03T00:40:09.584Z,8.08
2023-01-03T00:42:53.428Z,8.02
2023-01-03T00:45:25.581Z,7.89
2023-01-03T00:47:57.219Z,7.73
2023-01-03T00:50:29.544Z,7.97
2023-01-03T00:53:00.504Z,8.04
2023-01-03T00:55:30.102Z,7.87
2023-01-03T00:58:02.634Z,7.94
2023-01-03T01:00:35.113Z,7.93
2023-01-03T01:03:04.287Z,7.85
2023-01-03T01:05:33.729Z,8.00
2023-01-03T01:08:04.368Z,7.78
2023-01-03T01:10:33.587Z,7.72
2023-01-03T01:13:02.627Z,7.65
2023-01-03T01:15:35.293Z,7.36
2023-01-03T01:18:04.856Z,7.44
2023-01-03T01:20:35.311Z,7.68
2023-01-03T01:23:05.607Z,7.70
2023-01-03T01:25:36.254Z,7.52
2023-01-03T01:28:05.616Z,7.41
2023-01-03T01:30:37.946Z,7.41
2023-01-03T01:33:10.081Z,7.27
2023-01-03T01:35:39.836Z,7.18
2023-01-03T01:38:13.101Z,7.34
2023-01-03T01:40:42.993Z,7.43
2023-01-03T01:43:32.575Z,7.27
2023-01-03T01:46:02.807Z,7.18
2023-01-03T01:48:36.285Z,7.18
2023-01-03T01:51:06.138Z,7.16
2023-01-03T01:53:36.970Z,6.98
2023-01-03T01:56:13.212Z,7.05
2023-01-03T01:58:43.007Z,7.13
2023-01-03T02:01:14.674Z,7.06
2023-01-03T02:03:44.876Z,7.08
2023-01-03T02:06:16.189Z,7.13
2023-01-03T02:08:47.386Z,7.18
2023-01-03T02:11:24.589Z,7.25
2023-01-03T02:14:01.079Z,7.25
2023-01-03T02:16:46.275Z,7.24
2023-01-03T02:19:31.637Z,7.09
2023-01-03T02:22:13.103Z,7.15
2023-01-03T02:24:56.183Z,7.10
2023-01-03T02:27:45.524Z,7.17
2023-01-03T02:30:34.107Z,7.07
2023-01-03T02:33:08.751Z,7.13
2023-01-03T02:35:39.239Z,6.88
2023-01-03T02:38:10.995Z,6.79
2023-01-03T02:40:43.478Z,6.87
2023-01-03T02:43:15.268Z,6.82
2023-01-03T02:45:56.373Z,6.89
2023-01-03T02:48:32.232Z,6.91
2023-01-03T02:51:02.389Z,6.93
2023-01-03T02:53:33.143Z,7.00
2023-01-03T02:56:03.919Z,7.00
2023-01-03T02:58:33.711Z,6.94
2023-01-03T03:01:03.932Z,7.02
2023-01-03T03:03:34.989Z,7.07
2023-01-03T03:06:08.668Z,7.14
2023-01-03T03:08:37.561Z,7.01
2023-01-03T03:11:22.434Z,7.07
2023-01-03T03:13:52.952Z,7.01
2023-01-03T03:16:44.253Z,7.20
2023-01-03T03:19:40.476Z,7.26
2023-01-03T03:22:26.513Z,7.14
2023-01-03T03:24:56.125Z,6.96
2023-01-03T03:27:39.890Z,7.11
2023-01-03T03:30:10.486Z,6.97
2023-01-03T03:32:41.009Z,6.88
2023-01-03T03:35:11.581Z,7.01
2023-01-03T03:37:40.425Z,6.99
2023-01-03T03:40:29.135Z,6.92
2023-01-03T03:43:13.673Z,7.01
2023-01-03T03:45:43.577Z,6.94
2023-01-03T03:48:15.482Z,7.07
2023-01-03T03:50:46.754Z,7.23
2023-01-03T03:53:15.652Z,6.94
2023-01-03T03:55:46.649Z,6.99
2023-01-03T03:58:16.979Z,7.13
2023-01-03T04:00:45.940Z,6.99
2023-01-03T04:03:16.201Z,6.97
2023-01-03T04:05:47.935Z,7.02
2023-01-03T04:08:16.661Z,7.04
2023-01-03T04:10:45.373Z,7.08
2023-01-03T04:13:14.112Z,7.02
2023-01-03T04:15:42.792Z,7.09
2023-01-03T04:18:11.566Z,6.94
2023-01-03T04:20:41.678Z,7.03
2023-01-03T04:23:10.427Z,7.05
2023-01-03T04:25:39.402Z,6.94
2023-01-03T04:28:08.110Z,7.00
2023-01-03T04:30:36.808Z,6.81
2023-01-03T04:33:06.354Z,6.90
2023-01-03T04:35:35.419Z,6.76
2023-01-03T04:38:05.566Z,6.81
2023-01-03T04:40:35.736Z,6.71
2023-01-03T04:43:18.121Z,6.65
2023-01-03T04:45:46.910Z,6.68
2023-01-03T04:48:15.620Z,6.62
2023-01-03T04:50:44.336Z,6.51
2023-01-03T04:53:15.278Z,6.49
2023-01-03T04:55:48.245Z,6.37
2023-01-03T04:58:18.022Z,6.33
2023-01-03T05:00:46.949Z,6.35
2023-01-03T05:03:15.706Z,6.49
2023-01-03T05:05:44.387Z,6.35
2023-01-03T05:08:15.007Z,6.47
2023-01-03T05:10:43.700Z,6.45
2023-01-03T05:13:12.421Z,6.41
2023-01-03T05:15:41.163Z,6.29
2023-01-03T05:18:09.851Z,6.15
2023-01-03T05:20:52.655Z,6.17
2023-01-03T05:23:36.385Z,6.07
2023-01-03T05:26:08.239Z,5.97
2023-01-03T05:28:38.469Z,6.00
2023-01-03T05:31:09.339Z,6.01
2023-01-03T05:33:39.460Z,5.90
2023-01-03T05:36:09.134Z,5.93
2023-01-03T05:38:39.376Z,5.96
2023-01-03T05:41:08.129Z,5.95
2023-01-03T05:43:36.869Z,5.90
2023-01-03T05:46:05.682Z,5.89
2023-01-03T05:48:34.646Z,5.89
2023-01-03T05:51:03.513Z,5.94
2023-01-03T05:53:33.716Z,6.00
2023-01-03T05:56:07.732Z,6.07
2023-01-03T05:58:36.418Z,6.11
2023-01-03T06:01:10.256Z,6.15
2023-01-03T06:03:38.970Z,6.23
2023-01-03T06:06:09.990Z,6.27
2023-01-03T06:08:39.773Z,6.28
2023-01-03T06:11:14.074Z,6.31
2023-01-03T06:14:01.625Z,6.49
2023-01-03T06:16:44.096Z,6.41
2023-01-03T06:19:12.885Z,6.41
2023-01-03T06:21:42.835Z,6.30
2023-01-03T06:24:11.672Z,6.27
2023-01-03T06:26:42.357Z,6.35
2023-01-03T06:29:11.095Z,6.31
2023-01-03T06:31:40.395Z,6.39
2023-01-03T06:34:11.018Z,6.48
2023-01-03T06:36:40.275Z,6.52
2023-01-03T06:39:12.186Z,6.49
2023-01-03T06:41:42.347Z,6.53
2023-01-03T06:44:11.868Z,6.53
2023-01-03T06:46:54.331Z,6.65
2023-01-03T06:49:36.872Z,6.78
2023-01-03T06:52:19.746Z,6.75
2023-01-03T06:54:48.490Z,6.65
2023-01-03T06:57:25.745Z,6.69
2023-01-03T06:59:57.069Z,6.77
2023-01-03T07:02:28.061Z,6.76
2023-01-03T07:04:58.565Z,6.76
2023-01-03T07:07:36.555Z,6.74
2023-01-03T07:10:05.811Z,6.78
2023-01-03T07:12:49.580Z,6.78
2023-01-03T07:15:18.345Z,6.64
2023-01-03T07:17:47.809Z,6.62
2023-01-03T07:20:16.581Z,6.61
2023-01-03T07:22:47.183Z,6.61
2023-01-03T07:25:15.967Z,6.66
2023-01-03T07:27:46.104Z,6.53
2023-01-03T07:30:15.642Z,6.52
2023-01-03T07:32:48.811Z,6.52
2023-01-03T07:35:17.634Z,6.51
2023-01-03T07:37:46.387Z,6.47
2023-01-03T07:40:15.431Z,6.41
2023-01-03T07:42:59.159Z,6.37
2023-01-03T07:45:27.890Z,6.53
2023-01-03T07:47:57.468Z,6.49
2023-01-03T07:50:26.141Z,6.42
2023-01-03T07:52:55.924Z,6.39
2023-01-03T07:55:25.625Z,6.61
2023-01-03T07:57:55.842Z,6.61
2023-01-03T08:00:24.659Z,6.61
2023-01-03T08:02:55.382Z,6.58
2023-01-03T08:05:27.227Z,6.73
2023-01-03T08:07:56.197Z,6.63
2023-01-03T08:10:38.565Z,6.73
2023-01-03T08:13:20.919Z,6.70
2023-01-03T08:15:51.393Z,6.70
2023-01-03T08:18:22.354Z,6.69
2023-01-03T08:20:52.054Z,6.66
2023-01-03T08:23:20.747Z,6.87
2023-01-03T08:25:49.916Z,6.81
2023-01-03T08:28:20.360Z,6.67
2023-01-03T08:30:51.176Z,6.72
2023-01-03T08:33:20.893Z,6.85
2023-01-03T08:35:59.895Z,6.64
2023-01-03T08:38:30.620Z,6.72
2023-01-03T08:41:00.661Z,6.67
2023-01-03T08:43:32.474Z,6.72
2023-01-03T08:46:01.226Z,6.52
2023-01-03T08:48:29.932Z,6.59
2023-01-03T08:50:58.824Z,6.71
2023-01-03T08:53:29.091Z,6.75
2023-01-03T08:55:59.207Z,6.83
2023-01-03T08:58:29.019Z,6.71
2023-01-03T09:01:21.971Z,6.79
2023-01-03T09:03:51.653Z,6.79
2023-01-03T09:06:20.543Z,6.87
2023-01-03T09:08:49.300Z,6.96
2023-01-03T09:11:18.112Z,6.98
2023-01-03T09:13:46.902Z,7.11
2023-01-03T09:16:19.849Z,7.14
2023-01-03T09:19:07.488Z,7.12
2023-01-03T09:22:05.349Z,7.08
2023-01-03T09:24:36.092Z,7.19
2023-01-03T09:27:07.351Z,7.11
2023-01-03T09:29:36.400Z,7.08
2023-01-03T09:32:07.523Z,7.14
2023-01-03T09:34:37.036Z,7.09
2023-01-03T09:37:10.980Z,7.28
2023-01-03T09:39:52.808Z,7.35
2023-01-03T09:42:43.786Z,7.50
2023-01-03T09:45:15.015Z,7.47
2023-01-03T09:47:45.508Z,7.57
2023-01-03T09:50:57.345Z,7.54
2023-01-03T09:53:40.934Z,7.68
2023-01-03T09:56:26.278Z,7.43
2023-01-03T09:59:11.217Z,7.64
2023-01-03T10:02:00.735Z,7.47
2023-01-03T10:04:45.749Z,7.64
2023-01-03T10:07:21.032Z,7.69
2023-01-03T10:09:52.780Z,7.61
2023-01-03T10:12:25.306Z,7.49
2023-01-03T10:15:02.604Z,7.67
2023-01-03T10:17:34.707Z,7.59
2023-01-03T10:20:11.884Z,7.56
2023-01-03T10:22:40.596Z,7.64
2023-01-03T10:25:12.848Z,7.85
2023-01-03T10:27:45.813Z,7.96
2023-01-03T10:30:17.047Z,8.07
2023-01-03T10:32:56.043Z,8.13
2023-01-03T10:35:26.578Z,8.10
2023-01-03T10:37:57.114Z,8.12
2023-01-03T10:40:33.721Z,8.09
2023-01-03T10:43:08.306Z,8.18
2023-01-03T10:45:42.758Z,8.20
2023-01-03T10:48:16.014Z,8.19
2023-01-03T10:50:51.238Z,8.13
2023-01-03T10:53:25.743Z,8.24
2023-01-03T10:55:55.040Z,8.23
2023-01-03T10:58:29.223Z,8.22
2023-01-03T11:01:13.537Z,8.31
2023-01-03T11:03:51.088Z,8.28
2023-01-03T11:06:23.328Z,8.39
2023-01-03T11:08:52.381Z,8.52
2023-01-03T11:11:31.082Z,8.55
2023-01-03T11:14:17.410Z,8.44
2023-01-03T11:19:33.512Z,8.56
2023-01-03T11:22:07.381Z,8.55
2023-01-03T11:24:48.149Z,8.41
2023-01-03T11:27:21.419Z,8.26
2023-01-03T11:30:06.906Z,8.35
2023-01-03T11:32:45.588Z,8.39
2023-01-03T11:35:34.967Z,8.41
2023-01-03T11:38:14.972Z,8.52
2023-01-03T11:40:51.964Z,8.71
2023-01-03T11:43:28.914Z,8.66
2023-01-03T11:46:08.797Z,8.77
2023-01-03T11:48:51.535Z,8.77
2023-01-03T11:51:25.677Z,8.98
2023-01-03T11:54:05.609Z,8.88
2023-01-03T12:00:23.564Z,8.88
2023-01-03T12:03:05.444Z,8.77
2023-01-03T12:05:45.872Z,9.15
2023-01-03T12:08:44.250Z,9.10
2023-01-03T12:11:26.317Z,9.22
2023-01-03T12:13:59.231Z,9.29
2023-01-03T12:16:31.940Z,9.21
2023-01-03T12:19:05.663Z,9.35
2023-01-03T12:21:40.166Z,9.40
2023-01-03T12:24:16.438Z,9.35
2023-01-03T12:26:49.790Z,9.42
2023-01-03T12:29:19.876Z,9.38
2023-01-03T12:31:51.441Z,9.39
2023-01-03T12:34:25.651Z,9.41
2023-01-03T12:36:58.689Z,9.56
2023-01-03T12:39:35.364Z,9.49
2023-01-03T12:42:08.458Z,9.67
2023-01-03T12:44:39.243Z,9.70
2023-01-03T12:47:09.087Z,9.82
2023-01-03T12:49:44.566Z,10.03
2023-01-03T12:52:19.739Z,10.03
2023-01-03T12:54:50.445Z,9.98
2023-01-03T12:57:34.002Z,10.04
2023-01-03T13:00:21.033Z,9.96
2023-01-03T13:02:52.036Z,9.92
2023-01-03T13:05:24.460Z,9.97
2023-01-03T13:07:57.683Z,10.06
2023-01-03T13:10:27.731Z,9.94
2023-01-03T13:12:57.968Z,10.00
2023-01-03T13:15:36.032Z,10.06
2023-01-03T13:18:31.710Z,10.04
2023-01-03T13:21:00.497Z,9.98
2023-01-03T13:23:32.955Z,10.05
2023-01-03T13:26:22.408Z,10.22
2023-01-03T13:28:54.490Z,9.98
2023-01-03T13:31:43.862Z,10.31
2023-01-03T13:34:18.436Z,10.31
2023-01-03T13:37:19.205Z,10.10
2023-01-03T13:40:05.737Z,10.22
2023-01-03T13:42:43.891Z,10.28
2023-01-03T13:45:41.926Z,10.20
2023-01-03T13:48:18.654Z,10.08
2023-01-03T13:51:08.750Z,10.39
2023-01-03T13:53:39.462Z,10.12
2023-01-03T13:56:23.102Z,10.02
2023-01-03T13:58:58.745Z,10.10
2023-01-03T14:01:50.333Z,10.15
2023-01-03T14:04:30.436Z,10.01
2023-01-03T14:07:11.334Z,9.86
2023-01-03T14:09:50.534Z,9.97
2023-01-03T14:12:32.520Z,10.07
2023-01-03T14:15:26.010Z,10.00
2023-01-03T14:17:57.919Z,9.97
2023-01-03T14:20:28.626Z,10.07
2023-01-03T14:23:00.493Z,9.83
2023-01-03T14:25:33.343Z,9.73
2023-01-03T14:28:02.519Z,9.57
2023-01-03T14:30:32.411Z,9.48
2023-01-03T14:33:01.508Z,9.41
2023-01-03T14:35:36.084Z,9.39
2023-01-03T14:38:07.379Z,9.42
2023-01-03T14:40:36.953Z,9.41
2023-01-03T14:43:06.229Z,9.13
2023-01-03T14:45:35.067Z,9.32
2023-01-03T14:48:20.958Z,9.30
2023-01-03T14:50:53.471Z,9.19
2023-01-03T14:53:23.215Z,9.17
2023-01-03T14:55:54.675Z,9.11
2023-01-03T14:58:30.493Z,9.20
2023-01-03T15:00:59.346Z,9.09
2023-01-03T15:03:28.315Z,9.18
2023-01-03T15:06:01.506Z,9.00
2023-01-03T15:08:31.791Z,9.01
2023-01-03T15:11:01.548Z,8.91
2023-01-03T15:13:32.726Z,8.90
2023-01-03T15:16:02.354Z,8.75
2023-01-03T15:18:32.437Z,8.72
2023-01-03T15:21:03.448Z,8.88
2023-01-03T15:23:38.869Z,8.70
2023-01-03T15:26:08.056Z,8.71
2023-01-03T15:28:38.222Z,8.64
2023-01-03T15:31:19.614Z,8.60
2023-01-03T15:34:02.174Z,8.58
2023-01-03T15:36:33.638Z,8.44
2023-01-03T15:39:03.572Z,8.52
2023-01-03T15:41:46.790Z,8.47
2023-01-03T15:44:15.757Z,8.45
2023-01-03T15:46:49.338Z,8.53
2023-01-03T15:49:21.690Z,8.55
2023-01-03T15:52:00.634Z,8.42
2023-01-03T15:54:32.576Z,8.40
2023-01-03T15:57:04.840Z,8.31
2023-01-03T15:59:43.329Z,8.26
2023-01-03T16:02:16.771Z,8.13
2023-01-03T16:04:46.877Z,8.08
2023-01-03T16:07:19.663Z,8.05
2023-01-03T16:09:57.618Z,7.96
2023-01-03T16:12:44.644Z,7.93
2023-01-03T16:15:19.306Z,7.84
2023-01-03T16:17:50.672Z,7.81
2023-01-03T16:20:30.086Z,7.87
2023-01-03T16:23:03.513Z,7.77
2023-01-03T16:25:37.289Z,7.72
2023-01-03T16:28:12.307Z,7.54
2023-01-03T16:30:41.804Z,7.43
2023-01-03T16:33:30.380Z,7.42
2023-01-03T16:36:00.488Z,7.44
2023-01-03T16:38:34.269Z,7.42
2023-01-03T16:41:16.437Z,7.37
2023-01-03T16:43:54.162Z,7.36
2023-01-03T16:46:26.518Z,7.33
2023-01-03T16:48:55.715Z,7.32
2023-01-03T16:51:26.923Z,7.37
2023-01-03T16:54:03.999Z,7.30
2023-01-03T16:56:34.792Z,7.35
2023-01-03T16:59:07.018Z,7.16
2023-01-03T17:01:36.435Z,7.11
2023-01-03T17:04:09.410Z,7.15
2023-01-03T17:06:38.807Z,7.06
2023-01-03T17:09:12.973Z,7.04
2023-01-03T17:11:41.951Z,7.17
2023-01-03T17:14:14.502Z,7.19
2023-01-03T17:16:44.507Z,7.07
2023-01-03T17:20:01.188Z,7.04
2023-01-03T17:22:09.060Z,6.98
2023-01-03T17:24:41.074Z,6.92
2023-01-03T17:27:16.885Z,6.98
2023-01-03T17:29:46.075Z,6.91
2023-01-03T17:32:19.475Z,6.91
2023-01-03T17:34:53.872Z,6.92
2023-01-03T17:37:25.830Z,6.87
2023-01-03T17:40:03.161Z,6.91
2023-01-03T17:42:35.311Z,6.87
2023-01-03T17:45:18.209Z,6.85
2023-01-03T17:48:01.753Z,6.80
2023-01-03T17:50:34.880Z,6.83
2023-01-03T17:53:05.196Z,6.82
2023-01-03T17:55:37.859Z,6.73
2023-01-03T17:58:06.816Z,6.80
2023-01-03T18:00:41.145Z,6.81
2023-01-03T18:03:14.633Z,6.81
2023-01-03T18:05:45.265Z,6.65
2023-01-03T18:08:21.886Z,6.76
2023-01-03T18:10:54.530Z,6.69
2023-01-03T18:13:26.028Z,6.71
2023-01-03T18:15:55.970Z,6.67
2023-01-03T18:18:26.477Z,6.72
2023-01-03T18:23:43.634Z,6.63
2023-01-03T18:26:17.061Z,6.58
2023-01-03T18:28:47.675Z,6.58
2023-01-03T18:31:18.563Z,6.52
2023-01-03T18:33:48.531Z,6.49
2023-01-03T18:36:39.229Z,6.52
2023-01-03T18:39:09.706Z,6.51
2023-01-03T18:41:44.018Z,6.54
2023-01-03T18:44:20.360Z,6.59
2023-01-03T18:46:49.467Z,6.51
2023-01-03T18:49:20.836Z,6.59
2023-01-03T18:51:53.133Z,6.63
2023-01-03T18:54:25.440Z,6.63
2023-01-03T18:56:57.137Z,6.58
2023-01-03T18:59:29.855Z,6.62
2023-01-03T19:01:59.315Z,6.65
2023-01-03T19:04:28.345Z,6.60
2023-01-03T19:07:00.722Z,6.66
2023-01-03T19:09:30.613Z,6.53
2023-01-03T19:12:00.966Z,6.54
2023-01-03T19:14:29.891Z,6.48
2023-01-03T19:16:59.394Z,6.50
2023-01-03T19:19:28.351Z,6.55
2023-01-03T19:21:57.697Z,6.51
2023-01-03T19:24:36.276Z,6.51
2023-01-03T19:27:13.026Z,6.43
2023-01-03T19:29:42.557Z,6.38
2023-01-03T19:32:14.039Z,6.35
2023-01-03T19:34:46.250Z,6.28
2023-01-03T19:37:16.684Z,6.25
2023-01-03T19:39:46.159Z,6.32
2023-01-03T19:42:33.188Z,6.19
2023-01-03T19:45:02.716Z,6.21
2023-01-03T19:47:31.686Z,6.17
2023-01-03T19:50:09.569Z,6.16
2023-01-03T19:52:41.809Z,6.23
2023-01-03T19:55:13.503Z,6.22
2023-01-03T19:57:55.868Z,6.22
2023-01-03T20:00:33.173Z,6.17
2023-01-03T20:03:06.165Z,6.24
2023-01-03T20:05:52.811Z,6.31
2023-01-03T20:08:23.501Z,6.25
2023-01-03T20:10:55.243Z,6.27
2023-01-03T20:13:27.610Z,6.31
2023-01-03T20:16:01.067Z,6.31
2023-01-03T20:18:36.816Z,6.33
2023-01-03T20:21:14.243Z,6.30
2023-01-03T20:23:50.389Z,6.28
2023-01-03T20:26:25.045Z,6.27
2023-01-03T20:28:56.997Z,6.25
2023-01-03T20:31:27.677Z,6.26
2023-01-03T20:33:59.675Z,6.26
2023-01-03T20:36:37.268Z,6.22
2023-01-03T20:39:08.416Z,6.25
2023-01-03T20:44:23.754Z,6.19
2023-01-03T20:46:55.601Z,6.22
2023-01-03T20:49:27.658Z,6.10
2023-01-03T20:52:00.104Z,6.19
2023-01-03T20:54:33.181Z,6.17
2023-01-03T20:57:11.840Z,6.11
2023-01-03T20:59:52.463Z,6.07
2023-01-03T21:02:24.010Z,6.10
2023-01-03T21:04:54.387Z,5.98
2023-01-03T21:07:49.922Z,6.11
2023-01-03T21:10:24.986Z,5.95
2023-01-03T21:12:53.973Z,6.03
2023-01-03T21:15:27.168Z,6.08
2023-01-03T21:17:57.576Z,6.00
2023-01-03T21:20:40.819Z,5.92
2023-01-03T21:23:13.555Z,5.90
2023-01-03T21:25:48.587Z,5.95
2023-01-03T21:28:18.902Z,5.87
2023-01-03T21:30:52.129Z,5.91
2023-01-03T21:33:23.156Z,5.91
2023-01-03T21:35:53.101Z,5.83
2023-01-03T21:38:26.754Z,5.88
2023-01-03T21:40:56.068Z,5.91
2023-01-03T21:43:29.291Z,5.89
2023-01-03T21:46:12.190Z,5.87
2023-01-03T21:48:44.084Z,5.86
2023-01-03T21:51:20.741Z,5.80
2023-01-03T21:53:57.184Z,5.85
2023-01-03T21:56:27.460Z,5.78
2023-01-03T21:58:59.513Z,5.83
2023-01-03T22:01:49.868Z,5.83
2023-01-03T22:04:19.946Z,5.93
2023-01-03T22:06:49.086Z,5.81
2023-01-03T22:09:32.043Z,5.79
2023-01-03T22:12:01.713Z,5.75
2023-01-03T22:14:30.713Z,5.76
2023-01-03T22:17:01.515Z,5.77
2023-01-03T22:19:31.322Z,5.74
2023-01-03T22:22:00.637Z,5.74
2023-01-03T22:24:29.687Z,5.76
2023-01-03T22:29:42.849Z,5.70
2023-01-03T22:32:14.991Z,5.68
2023-01-03T22:34:47.613Z,5.71
2023-01-03T22:37:19.550Z,5.71
2023-01-03T22:39:49.531Z,5.70
2023-01-03T22:42:20.058Z,5.70
2023-01-03T22:44:53.511Z,5.72
2023-01-03T22:47:28.506Z,5.72
2023-01-03T22:50:00.594Z,5.74
2023-01-03T22:52:30.430Z,5.75
2023-01-03T22:55:00.474Z,5.74
2023-01-03T22:57:32.555Z,5.68
2023-01-03T23:00:02.105Z,5.72
2023-01-03T23:02:41.056Z,5.71
2023-01-03T23:05:11.926Z,5.71
2023-01-03T23:07:45.239Z,5.71
2023-01-03T23:10:14.205Z,5.65
2023-01-03T23:12:57.233Z,5.68
2023-01-03T23:15:26.864Z,5.67
2023-01-03T23:17:59.800Z,5.72
2023-01-03T23:20:30.252Z,5.73
2023-01-03T23:23:03.101Z,5.67
2023-01-03T23:25:34.854Z,5.69
2023-01-03T23:28:06.039Z,5.75
2023-01-03T23:30:36.140Z,5.79
2023-01-03T23:33:08.844Z,5.78
2023-01-03T23:35:37.571Z,5.76
2023-01-03T23:38:08.311Z,5.72
2023-01-03T23:40:41.165Z,5.79
2023-01-03T23:43:10.093Z,5.86
2023-01-03T23:45:38.920Z,5.70
2023-01-03T23:48:11.128Z,5.75
2023-01-03T23:50:39.911Z,5.76
2023-01-03T23:53:08.944Z,5.71
2023-01-03T23:55:37.904Z,5.70
2023-01-03T23:58:07.312Z,5.73
